Amparo, Brazil
Current Conditions -  °F | °C
As of 7:00 AM on Saturday 25 Oct 2014 (Local Time) from SBKP Reporting Station
Clear Clear  
Wind Chill: 68°   Ceiling: Unl
Heat Index: 68°   Visibility: 5mi
Dew Point: 63°   Wind: 5mph
Humidity: 83%   Direction: 120°ESE
Pressure: 30"   Gusts: NA
Location:  22.7°S, 46.76°W
Report Text: SBKP 250900Z 12004KT 8000 NSC 20/17 Q1016
Loading
Personal Weather Stations






























Interactive Weather Map
Tropical Storm Tracking
New forecast layout! Learn more

10-Day Weather Forecast

Advertisements
Track Severe Weather on mobile